EJU72JD LKPR-LIMC
Flight info
| Callsign | EJU72JD |
|---|---|
| Flight time | 1h 10m |
| Altitude | 30000 |
| Route | DOBEN DCT RUDAP/N0458F340 P31 DOSEL DCT EBEDA DCT BADVI DCT BERAS DCT OLPIX/N0463F330 DCT EKPEB DCT NAXAV DCT RENTA DCT ATPED DCT LUSIL DCT EVRIP |
| Aircraft | A20N/M-SDE2E3FGHIRWXY/LB1 |
Departure
| Time | 2026-05-06 19:46 |
|---|---|
| Airport | Václav Havel Airport Prague (LKPR) |
Arrival
| Time | 2026-05-06 20:56 |
|---|---|
| Airport | Milan Malpensa International Airport (LIMC) |
| Time | Latitude | Longitude | Altitude | Speed | Heading |
|---|---|---|---|---|---|
| 2026-05-06 19:29 | 50.11059 | 14.26734 | 1179 ft | 0 kts | 78° |
| 2026-05-06 19:33 | 50.11056 | 14.26708 | 1176 ft | 3 kts | 78° |
| 2026-05-06 19:33 | 50.11050 | 14.26682 | 1174 ft | 3 kts | 27° |
| 2026-05-06 19:33 | 50.11034 | 14.26680 | 1175 ft | 0 kts | 316° |
| 2026-05-06 19:36 | 50.11040 | 14.26671 | 1176 ft | 4 kts | 316° |
| 2026-05-06 19:36 | 50.11067 | 14.26630 | 1176 ft | 6 kts | 307° |
| 2026-05-06 19:37 | 50.11074 | 14.26556 | 1173 ft | 9 kts | 263° |
| 2026-05-06 19:37 | 50.11077 | 14.26431 | 1172 ft | 14 kts | 278° |
| 2026-05-06 19:37 | 50.11086 | 14.26275 | 1170 ft | 15 kts | 258° |
| 2026-05-06 19:37 | 50.11057 | 14.26177 | 1168 ft | 15 kts | 244° |
| 2026-05-06 19:38 | 50.10991 | 14.25961 | 1169 ft | 17 kts | 240° |
| 2026-05-06 19:38 | 50.10907 | 14.25848 | 1174 ft | 16 kts | 216° |
| 2026-05-06 19:38 | 50.10815 | 14.25752 | 1175 ft | 15 kts | 214° |
| 2026-05-06 19:38 | 50.10735 | 14.25666 | 1178 ft | 13 kts | 215° |
| 2026-05-06 19:39 | 50.10664 | 14.25591 | 1176 ft | 10 kts | 213° |
| 2026-05-06 19:39 | 50.10610 | 14.25511 | 1176 ft | 10 kts | 237° |
| 2026-05-06 19:39 | 50.10602 | 14.25482 | 1179 ft | 0 kts | 255° |
| 2026-05-06 19:40 | 50.10600 | 14.25467 | 1179 ft | 4 kts | 255° |
| 2026-05-06 19:40 | 50.10592 | 14.25415 | 1176 ft | 6 kts | 259° |
| 2026-05-06 19:40 | 50.10582 | 14.25334 | 1178 ft | 8 kts | 259° |
| 2026-05-06 19:40 | 50.10580 | 14.25318 | 1177 ft | 0 kts | 258° |
| 2026-05-06 19:41 | 50.10579 | 14.25311 | 1177 ft | 0 kts | 258° |
| 2026-05-06 19:44 | 50.10579 | 14.25307 | 1177 ft | 3 kts | 258° |
| 2026-05-06 19:44 | 50.10570 | 14.25245 | 1175 ft | 8 kts | 258° |
| 2026-05-06 19:44 | 50.10548 | 14.25153 | 1175 ft | 10 kts | 242° |
| 2026-05-06 19:44 | 50.10509 | 14.25148 | 1173 ft | 6 kts | 141° |
| 2026-05-06 19:45 | 50.10482 | 14.25203 | 1177 ft | 10 kts | 127° |
| 2026-05-06 19:45 | 50.10328 | 14.25521 | 1184 ft | 67 kts | 127° |
| 2026-05-06 19:45 | 50.09924 | 14.26354 | 1199 ft | 125 kts | 127° |
| 2026-05-06 19:45 | 50.09303 | 14.27606 | 1412 ft | 150 kts | 127° |
| 2026-05-06 19:46 | 50.08872 | 14.28421 | 1871 ft | 147 kts | 128° |
| 2026-05-06 19:46 | 50.08201 | 14.29692 | 2378 ft | 157 kts | 126° |
| 2026-05-06 19:46 | 50.07475 | 14.31147 | 2794 ft | 184 kts | 124° |
| 2026-05-06 19:46 | 50.06673 | 14.32891 | 3128 ft | 212 kts | 124° |
| 2026-05-06 19:47 | 50.05738 | 14.34905 | 3406 ft | 245 kts | 126° |
| 2026-05-06 19:47 | 50.04688 | 14.37113 | 4011 ft | 260 kts | 127° |
| 2026-05-06 19:47 | 50.03590 | 14.39396 | 4829 ft | 267 kts | 128° |
| 2026-05-06 19:47 | 50.02467 | 14.41719 | 5749 ft | 270 kts | 129° |
| 2026-05-06 19:48 | 50.01332 | 14.44069 | 6696 ft | 274 kts | 129° |
| 2026-05-06 19:48 | 50.00220 | 14.46513 | 7576 ft | 277 kts | 136° |
| 2026-05-06 19:48 | 49.98688 | 14.48186 | 8409 ft | 273 kts | 163° |
| 2026-05-06 19:48 | 49.96835 | 14.48592 | 9275 ft | 270 kts | 189° |
| 2026-05-06 19:49 | 49.95087 | 14.47630 | 10076 ft | 271 kts | 214° |
| 2026-05-06 19:49 | 49.93733 | 14.45488 | 10460 ft | 292 kts | 238° |
| 2026-05-06 19:49 | 49.93048 | 14.42414 | 10780 ft | 317 kts | 261° |
| 2026-05-06 19:49 | 49.93091 | 14.38869 | 11124 ft | 340 kts | 273° |
| 2026-05-06 19:50 | 49.93381 | 14.35141 | 11630 ft | 354 kts | 275° |
| 2026-05-06 19:50 | 49.93702 | 14.31288 | 12225 ft | 364 kts | 275° |
| 2026-05-06 19:50 | 49.93842 | 14.27354 | 13026 ft | 365 kts | 264° |
| 2026-05-06 19:50 | 49.93449 | 14.23449 | 13819 ft | 367 kts | 256° |
| 2026-05-06 19:51 | 49.92871 | 14.19566 | 14581 ft | 370 kts | 255° |
| 2026-05-06 19:51 | 49.92270 | 14.15656 | 15332 ft | 374 kts | 255° |
| 2026-05-06 19:51 | 49.91668 | 14.11719 | 16076 ft | 377 kts | 255° |
| 2026-05-06 19:51 | 49.91061 | 14.07742 | 16818 ft | 380 kts | 255° |
| 2026-05-06 19:52 | 49.90452 | 14.03728 | 17543 ft | 384 kts | 255° |
| 2026-05-06 19:52 | 49.89841 | 13.99678 | 18231 ft | 387 kts | 255° |
| 2026-05-06 19:52 | 49.89227 | 13.95594 | 18835 ft | 391 kts | 255° |
| 2026-05-06 19:52 | 49.88562 | 13.91495 | 19406 ft | 393 kts | 251° |
| 2026-05-06 19:53 | 49.87548 | 13.87577 | 19708 ft | 391 kts | 241° |
| 2026-05-06 19:53 | 49.86012 | 13.84107 | 19773 ft | 390 kts | 227° |
| 2026-05-06 19:53 | 49.84006 | 13.81304 | 20116 ft | 394 kts | 218° |
| 2026-05-06 19:53 | 49.81752 | 13.78864 | 20732 ft | 396 kts | 213° |
| 2026-05-06 19:54 | 49.79376 | 13.76623 | 21300 ft | 400 kts | 211° |
| 2026-05-06 19:54 | 49.76951 | 13.74476 | 21908 ft | 403 kts | 210° |
| 2026-05-06 19:54 | 49.74496 | 13.72333 | 22523 ft | 405 kts | 210° |
| 2026-05-06 19:54 | 49.72043 | 13.70173 | 23106 ft | 408 kts | 211° |
| 2026-05-06 19:55 | 49.69609 | 13.67996 | 23620 ft | 410 kts | 211° |
| 2026-05-06 19:55 | 49.67136 | 13.65756 | 24094 ft | 413 kts | 211° |
| 2026-05-06 19:55 | 49.64660 | 13.63491 | 24577 ft | 414 kts | 211° |
| 2026-05-06 19:55 | 49.62181 | 13.61215 | 25053 ft | 416 kts | 211° |
| 2026-05-06 19:56 | 49.59685 | 13.58919 | 25483 ft | 419 kts | 211° |
| 2026-05-06 19:56 | 49.57169 | 13.56607 | 25942 ft | 421 kts | 211° |
| 2026-05-06 19:56 | 49.54654 | 13.54300 | 26452 ft | 421 kts | 211° |
| 2026-05-06 19:56 | 49.52131 | 13.51990 | 26943 ft | 422 kts | 211° |
| 2026-05-06 19:57 | 49.49599 | 13.49676 | 27398 ft | 423 kts | 211° |
| 2026-05-06 19:57 | 49.47064 | 13.47363 | 27723 ft | 424 kts | 211° |
| 2026-05-06 19:57 | 49.44540 | 13.45062 | 27773 ft | 422 kts | 211° |
| 2026-05-06 19:57 | 49.42013 | 13.42764 | 27771 ft | 421 kts | 211° |
| 2026-05-06 19:58 | 49.39488 | 13.40469 | 27763 ft | 422 kts | 211° |
| 2026-05-06 19:58 | 49.36983 | 13.38195 | 27775 ft | 424 kts | 211° |
| 2026-05-06 19:58 | 49.34442 | 13.35890 | 27850 ft | 425 kts | 211° |
| 2026-05-06 19:58 | 49.31896 | 13.33584 | 28342 ft | 423 kts | 211° |
| 2026-05-06 19:59 | 49.29369 | 13.31298 | 29032 ft | 419 kts | 211° |
| 2026-05-06 19:59 | 49.26864 | 13.29034 | 29586 ft | 417 kts | 210° |
| 2026-05-06 19:59 | 49.24359 | 13.26790 | 29770 ft | 416 kts | 209° |
| 2026-05-06 19:59 | 49.21807 | 13.24686 | 29779 ft | 415 kts | 207° |
| 2026-05-06 20:00 | 49.16605 | 13.20760 | 29788 ft | 420 kts | 206° |
| 2026-05-06 20:00 | 49.13998 | 13.18852 | 29936 ft | 421 kts | 206° |
| 2026-05-06 20:00 | 49.11364 | 13.16925 | 30403 ft | 418 kts | 206° |
| 2026-05-06 20:01 | 49.08757 | 13.15010 | 30943 ft | 414 kts | 206° |
| 2026-05-06 20:01 | 49.06175 | 13.13106 | 31433 ft | 411 kts | 206° |
| 2026-05-06 20:01 | 49.03538 | 13.11464 | 31904 ft | 409 kts | 200° |
| 2026-05-06 20:01 | 49.00792 | 13.10315 | 32349 ft | 408 kts | 195° |
| 2026-05-06 20:02 | 48.98030 | 13.09363 | 32747 ft | 407 kts | 194° |
| 2026-05-06 20:02 | 48.95265 | 13.08437 | 33130 ft | 406 kts | 194° |
| 2026-05-06 20:02 | 48.92509 | 13.07530 | 33577 ft | 403 kts | 194° |
| 2026-05-06 20:02 | 48.89760 | 13.06645 | 33790 ft | 404 kts | 194° |
| 2026-05-06 20:03 | 48.84275 | 13.04904 | 33814 ft | 402 kts | 194° |
| 2026-05-06 20:03 | 48.78827 | 13.03179 | 33814 ft | 402 kts | 194° |
| 2026-05-06 20:04 | 48.73325 | 13.01457 | 33824 ft | 405 kts | 194° |
| 2026-05-06 20:04 | 48.67783 | 12.99735 | 33837 ft | 406 kts | 194° |
| 2026-05-06 20:05 | 48.62232 | 12.98012 | 33837 ft | 407 kts | 194° |
| 2026-05-06 20:05 | 48.56689 | 12.96294 | 33817 ft | 407 kts | 194° |
| 2026-05-06 20:06 | 48.51130 | 12.94581 | 33850 ft | 408 kts | 195° |
| 2026-05-06 20:06 | 48.45798 | 12.91806 | 33847 ft | 404 kts | 208° |
| 2026-05-06 20:07 | 48.41017 | 12.87383 | 33855 ft | 404 kts | 215° |
| 2026-05-06 20:07 | 48.36478 | 12.82488 | 33871 ft | 404 kts | 217° |
| 2026-05-06 20:08 | 48.31947 | 12.77508 | 33865 ft | 402 kts | 217° |
| 2026-05-06 20:08 | 48.27392 | 12.72576 | 33871 ft | 402 kts | 216° |
| 2026-05-06 20:09 | 48.22836 | 12.67702 | 33870 ft | 402 kts | 216° |
| 2026-05-06 20:09 | 48.18273 | 12.62846 | 33879 ft | 402 kts | 216° |
| 2026-05-06 20:10 | 48.13734 | 12.58026 | 33876 ft | 402 kts | 216° |
| 2026-05-06 20:10 | 48.09166 | 12.53183 | 33881 ft | 402 kts | 216° |
| 2026-05-06 20:11 | 48.04593 | 12.48344 | 33890 ft | 402 kts | 216° |
| 2026-05-06 20:11 | 48.00015 | 12.43510 | 33888 ft | 402 kts | 216° |
| 2026-05-06 20:12 | 47.95437 | 12.38688 | 33884 ft | 402 kts | 216° |
| 2026-05-06 20:12 | 47.90868 | 12.33886 | 33889 ft | 402 kts | 216° |
| 2026-05-06 20:13 | 47.86287 | 12.29082 | 33888 ft | 402 kts | 216° |
| 2026-05-06 20:13 | 47.81731 | 12.24314 | 33880 ft | 402 kts | 216° |
| 2026-05-06 20:14 | 47.77155 | 12.19536 | 33877 ft | 401 kts | 216° |
| 2026-05-06 20:14 | 47.72595 | 12.14785 | 33871 ft | 400 kts | 216° |
| 2026-05-06 20:15 | 47.68033 | 12.10043 | 33878 ft | 400 kts | 216° |
| 2026-05-06 20:15 | 47.63502 | 12.05342 | 33865 ft | 399 kts | 216° |
| 2026-05-06 20:16 | 47.58938 | 12.00618 | 33847 ft | 400 kts | 216° |
| 2026-05-06 20:16 | 47.54397 | 11.95924 | 33856 ft | 397 kts | 216° |
| 2026-05-06 20:17 | 47.49868 | 11.91258 | 33850 ft | 396 kts | 216° |
| 2026-05-06 20:17 | 47.45343 | 11.86604 | 33846 ft | 396 kts | 216° |
| 2026-05-06 20:18 | 47.40811 | 11.81951 | 33846 ft | 396 kts | 216° |
| 2026-05-06 20:18 | 47.36077 | 11.77909 | 33843 ft | 396 kts | 205° |
| 2026-05-06 20:19 | 47.30732 | 11.75686 | 33851 ft | 401 kts | 195° |
| 2026-05-06 20:19 | 47.25226 | 11.74325 | 33853 ft | 402 kts | 193° |
| 2026-05-06 20:20 | 47.19691 | 11.73120 | 33835 ft | 402 kts | 193° |
| 2026-05-06 20:20 | 47.14157 | 11.71892 | 33843 ft | 401 kts | 193° |
| 2026-05-06 20:21 | 47.08687 | 11.70643 | 33834 ft | 400 kts | 193° |
| 2026-05-06 20:21 | 47.03199 | 11.69266 | 33844 ft | 398 kts | 198° |
| 2026-05-06 20:22 | 46.98022 | 11.66559 | 33850 ft | 394 kts | 206° |
| 2026-05-06 20:22 | 46.93024 | 11.63292 | 33854 ft | 392 kts | 207° |
| 2026-05-06 20:23 | 46.88062 | 11.59927 | 33855 ft | 393 kts | 207° |
| 2026-05-06 20:23 | 46.83124 | 11.56589 | 33858 ft | 392 kts | 207° |
| 2026-05-06 20:24 | 46.78158 | 11.53263 | 33875 ft | 392 kts | 207° |
| 2026-05-06 20:24 | 46.73209 | 11.49973 | 33903 ft | 390 kts | 207° |
| 2026-05-06 20:25 | 46.68365 | 11.46430 | 33913 ft | 388 kts | 214° |
| 2026-05-06 20:25 | 46.64258 | 11.41411 | 33920 ft | 386 kts | 228° |
| 2026-05-06 20:26 | 46.60957 | 11.35269 | 33935 ft | 389 kts | 232° |
| 2026-05-06 20:26 | 46.57872 | 11.28827 | 33931 ft | 387 kts | 233° |
| 2026-05-06 20:27 | 46.54801 | 11.22383 | 33915 ft | 387 kts | 233° |
| 2026-05-06 20:27 | 46.51712 | 11.16021 | 33908 ft | 386 kts | 233° |
| 2026-05-06 20:28 | 46.48588 | 11.09655 | 33923 ft | 387 kts | 232° |
| 2026-05-06 20:28 | 46.45454 | 11.03304 | 33915 ft | 387 kts | 232° |
| 2026-05-06 20:29 | 46.42321 | 10.96961 | 33942 ft | 386 kts | 232° |
| 2026-05-06 20:29 | 46.39198 | 10.90656 | 33987 ft | 385 kts | 232° |
| 2026-05-06 20:30 | 46.34530 | 10.81240 | 33973 ft | 385 kts | 232° |
| 2026-05-06 20:31 | 46.31391 | 10.74926 | 33965 ft | 386 kts | 232° |
| 2026-05-06 20:31 | 46.28248 | 10.68624 | 33687 ft | 386 kts | 232° |
| 2026-05-06 20:31 | 46.26677 | 10.65478 | 33283 ft | 386 kts | 232° |
| 2026-05-06 20:32 | 46.25102 | 10.62326 | 32873 ft | 386 kts | 232° |
| 2026-05-06 20:32 | 46.24049 | 10.60248 | 32600 ft | 386 kts | 231° |
| 2026-05-06 20:32 | 46.22311 | 10.57309 | 32212 ft | 385 kts | 226° |
| 2026-05-06 20:32 | 46.19858 | 10.53596 | 31704 ft | 385 kts | 225° |
| 2026-05-06 20:33 | 46.17989 | 10.50827 | 31343 ft | 386 kts | 225° |
| 2026-05-06 20:33 | 46.16722 | 10.48957 | 31076 ft | 385 kts | 225° |
| 2026-05-06 20:33 | 46.14843 | 10.46195 | 30700 ft | 385 kts | 225° |
| 2026-05-06 20:33 | 46.12986 | 10.43472 | 30355 ft | 385 kts | 225° |
| 2026-05-06 20:34 | 46.11104 | 10.40718 | 29969 ft | 386 kts | 225° |
| 2026-05-06 20:34 | 46.09216 | 10.37962 | 29558 ft | 386 kts | 224° |
| 2026-05-06 20:34 | 46.07327 | 10.35205 | 29177 ft | 388 kts | 224° |
| 2026-05-06 20:34 | 46.05425 | 10.32433 | 28745 ft | 390 kts | 224° |
| 2026-05-06 20:35 | 46.03511 | 10.29644 | 28428 ft | 393 kts | 225° |
| 2026-05-06 20:35 | 46.01585 | 10.26841 | 28100 ft | 395 kts | 225° |
| 2026-05-06 20:35 | 45.99641 | 10.24014 | 27792 ft | 397 kts | 225° |
| 2026-05-06 20:35 | 45.97691 | 10.21184 | 27452 ft | 400 kts | 224° |
| 2026-05-06 20:36 | 45.95728 | 10.18337 | 27154 ft | 402 kts | 224° |
| 2026-05-06 20:36 | 45.93752 | 10.15474 | 26838 ft | 404 kts | 224° |
| 2026-05-06 20:36 | 45.91762 | 10.12592 | 26506 ft | 407 kts | 225° |
| 2026-05-06 20:36 | 45.89762 | 10.09702 | 26192 ft | 408 kts | 225° |
| 2026-05-06 20:37 | 45.87753 | 10.06804 | 25882 ft | 409 kts | 225° |
| 2026-05-06 20:37 | 45.85746 | 10.03913 | 25545 ft | 409 kts | 224° |
| 2026-05-06 20:37 | 45.83756 | 10.01046 | 25208 ft | 411 kts | 225° |
| 2026-05-06 20:37 | 45.81701 | 9.98092 | 24856 ft | 415 kts | 225° |
| 2026-05-06 20:38 | 45.79690 | 9.95205 | 24525 ft | 415 kts | 225° |
| 2026-05-06 20:38 | 45.77654 | 9.92279 | 24189 ft | 414 kts | 225° |
| 2026-05-06 20:38 | 45.75621 | 9.89359 | 23867 ft | 413 kts | 225° |
| 2026-05-06 20:38 | 45.73592 | 9.86450 | 23505 ft | 412 kts | 225° |
| 2026-05-06 20:39 | 45.71568 | 9.83559 | 23157 ft | 410 kts | 225° |
| 2026-05-06 20:39 | 45.69547 | 9.80670 | 22798 ft | 412 kts | 225° |
| 2026-05-06 20:39 | 45.67512 | 9.77764 | 22328 ft | 413 kts | 225° |
| 2026-05-06 20:39 | 45.65483 | 9.74867 | 21848 ft | 412 kts | 225° |
| 2026-05-06 20:40 | 45.63451 | 9.71970 | 21372 ft | 411 kts | 225° |
| 2026-05-06 20:40 | 45.61428 | 9.69089 | 20909 ft | 409 kts | 225° |
| 2026-05-06 20:40 | 45.59414 | 9.66226 | 20447 ft | 408 kts | 224° |
| 2026-05-06 20:40 | 45.57408 | 9.63375 | 20133 ft | 406 kts | 224° |
| 2026-05-06 20:41 | 45.55425 | 9.60562 | 19659 ft | 398 kts | 225° |
| 2026-05-06 20:41 | 45.53482 | 9.57808 | 19196 ft | 390 kts | 225° |
| 2026-05-06 20:41 | 45.51574 | 9.55106 | 18738 ft | 382 kts | 224° |
| 2026-05-06 20:41 | 45.49705 | 9.52461 | 18276 ft | 375 kts | 224° |
| 2026-05-06 20:42 | 45.47865 | 9.49862 | 17758 ft | 369 kts | 224° |
| 2026-05-06 20:42 | 45.46056 | 9.47308 | 17248 ft | 363 kts | 224° |
| 2026-05-06 20:42 | 45.44272 | 9.44792 | 16728 ft | 358 kts | 224° |
| 2026-05-06 20:42 | 45.42534 | 9.42342 | 16225 ft | 354 kts | 224° |
| 2026-05-06 20:43 | 45.40789 | 9.39887 | 15719 ft | 351 kts | 224° |
| 2026-05-06 20:43 | 45.39051 | 9.37441 | 15138 ft | 350 kts | 224° |
| 2026-05-06 20:43 | 45.37322 | 9.35012 | 14653 ft | 348 kts | 224° |
| 2026-05-06 20:43 | 45.35603 | 9.32598 | 14202 ft | 347 kts | 224° |
| 2026-05-06 20:44 | 45.33890 | 9.30196 | 13749 ft | 345 kts | 225° |
| 2026-05-06 20:44 | 45.32179 | 9.27798 | 13242 ft | 342 kts | 225° |
| 2026-05-06 20:44 | 45.30493 | 9.25437 | 12738 ft | 338 kts | 225° |
| 2026-05-06 20:44 | 45.28829 | 9.23110 | 12241 ft | 333 kts | 225° |
| 2026-05-06 20:45 | 45.27197 | 9.20827 | 11749 ft | 326 kts | 225° |
| 2026-05-06 20:45 | 45.25595 | 9.18591 | 11263 ft | 320 kts | 225° |
| 2026-05-06 20:45 | 45.24023 | 9.16397 | 10775 ft | 314 kts | 225° |
| 2026-05-06 20:45 | 45.22493 | 9.14264 | 10311 ft | 309 kts | 225° |
| 2026-05-06 20:46 | 45.20974 | 9.12148 | 9851 ft | 304 kts | 224° |
| 2026-05-06 20:46 | 45.19478 | 9.10064 | 9359 ft | 298 kts | 224° |
| 2026-05-06 20:46 | 45.18014 | 9.08018 | 8859 ft | 294 kts | 226° |
| 2026-05-06 20:46 | 45.16757 | 9.05758 | 8363 ft | 290 kts | 237° |
| 2026-05-06 20:47 | 45.15968 | 9.03149 | 7878 ft | 288 kts | 254° |
| 2026-05-06 20:47 | 45.15832 | 9.00331 | 7392 ft | 289 kts | 274° |
| 2026-05-06 20:47 | 45.16448 | 8.97627 | 6969 ft | 292 kts | 295° |
| 2026-05-06 20:47 | 45.17804 | 8.95462 | 6588 ft | 297 kts | 319° |
| 2026-05-06 20:48 | 45.19551 | 8.93888 | 6228 ft | 297 kts | 326° |
| 2026-05-06 20:48 | 45.21348 | 8.92466 | 5837 ft | 295 kts | 327° |
| 2026-05-06 20:48 | 45.23139 | 8.91069 | 5447 ft | 292 kts | 327° |
| 2026-05-06 20:48 | 45.24893 | 8.89689 | 5084 ft | 290 kts | 328° |
| 2026-05-06 20:49 | 45.26639 | 8.88301 | 4749 ft | 287 kts | 328° |
| 2026-05-06 20:49 | 45.28370 | 8.86918 | 4367 ft | 284 kts | 329° |
| 2026-05-06 20:49 | 45.30072 | 8.85551 | 4061 ft | 278 kts | 329° |
| 2026-05-06 20:49 | 45.31738 | 8.84212 | 4011 ft | 272 kts | 328° |
| 2026-05-06 20:50 | 45.33390 | 8.82880 | 4018 ft | 274 kts | 328° |
| 2026-05-06 20:50 | 45.35053 | 8.81535 | 4017 ft | 275 kts | 328° |
| 2026-05-06 20:50 | 45.36742 | 8.80298 | 4007 ft | 268 kts | 339° |
| 2026-05-06 20:50 | 45.38518 | 8.79847 | 4008 ft | 253 kts | 355° |
| 2026-05-06 20:51 | 45.40226 | 8.79622 | 4040 ft | 242 kts | 351° |
| 2026-05-06 20:51 | 45.41819 | 8.79236 | 4006 ft | 225 kts | 347° |
| 2026-05-06 20:51 | 45.43307 | 8.78816 | 4003 ft | 207 kts | 347° |
| 2026-05-06 20:51 | 45.44674 | 8.78429 | 3991 ft | 200 kts | 348° |
| 2026-05-06 20:52 | 45.46034 | 8.78048 | 3897 ft | 199 kts | 348° |
| 2026-05-06 20:52 | 45.47385 | 8.77677 | 3634 ft | 197 kts | 348° |
| 2026-05-06 20:52 | 45.48728 | 8.77308 | 3337 ft | 195 kts | 348° |
| 2026-05-06 20:52 | 45.50056 | 8.76941 | 3059 ft | 192 kts | 348° |
| 2026-05-06 20:53 | 45.51336 | 8.76587 | 2795 ft | 183 kts | 349° |
| 2026-05-06 20:53 | 45.52547 | 8.76252 | 2556 ft | 172 kts | 349° |
| 2026-05-06 20:53 | 45.53693 | 8.75935 | 2335 ft | 162 kts | 351° |
| 2026-05-06 20:53 | 45.54752 | 8.75642 | 2109 ft | 152 kts | 352° |
| 2026-05-06 20:54 | 45.55771 | 8.75360 | 1914 ft | 147 kts | 352° |
| 2026-05-06 20:54 | 45.56769 | 8.75085 | 1688 ft | 143 kts | 351° |
| 2026-05-06 20:54 | 45.57739 | 8.74806 | 1451 ft | 142 kts | 350° |
| 2026-05-06 20:54 | 45.58707 | 8.74525 | 1256 ft | 141 kts | 351° |
| 2026-05-06 20:55 | 45.59673 | 8.74284 | 1079 ft | 143 kts | 349° |
| 2026-05-06 20:55 | 45.60642 | 8.74011 | 905 ft | 140 kts | 348° |
| 2026-05-06 20:55 | 45.61594 | 8.73746 | 749 ft | 139 kts | 349° |
| 2026-05-06 20:55 | 45.62486 | 8.73499 | 730 ft | 112 kts | 349° |
| 2026-05-06 20:56 | 45.63070 | 8.73338 | 736 ft | 60 kts | 349° |
| 2026-05-06 20:56 | 45.63396 | 8.73248 | 744 ft | 39 kts | 349° |
| 2026-05-06 20:56 | 45.63604 | 8.73180 | 751 ft | 27 kts | 334° |
| 2026-05-06 20:56 | 45.63745 | 8.73037 | 755 ft | 23 kts | 316° |
| 2026-05-06 20:57 | 45.63841 | 8.72869 | 753 ft | 20 kts | 302° |
| 2026-05-06 20:57 | 45.63931 | 8.72784 | 756 ft | 14 kts | 350° |
| 2026-05-06 20:57 | 45.64030 | 8.72762 | 755 ft | 15 kts | 350° |
| 2026-05-06 20:57 | 45.64131 | 8.72735 | 758 ft | 15 kts | 348° |
| 2026-05-06 20:58 | 45.64234 | 8.72706 | 764 ft | 15 kts | 349° |
| 2026-05-06 20:58 | 45.64340 | 8.72678 | 767 ft | 16 kts | 354° |
| 2026-05-06 20:58 | 45.64447 | 8.72664 | 769 ft | 11 kts | 350° |
| 2026-05-06 20:58 | 45.64473 | 8.72598 | 770 ft | 8 kts | 261° |
| 2026-05-06 20:59 | 45.64465 | 8.72521 | 770 ft | 8 kts | 261° |
| 2026-05-06 20:59 | 45.64475 | 8.72500 | 770 ft | 5 kts | 323° |
| 2026-05-06 20:59 | 45.64511 | 8.72487 | 771 ft | 6 kts | 351° |
| 2026-05-06 20:59 | 45.64540 | 8.72480 | 771 ft | 2 kts | 351° |
| 2026-05-06 21:00 | 45.64549 | 8.72478 | 771 ft | 0 kts | 350° |